sensor_id;sensor_type;location;lat;lon;timestamp;pressure;altitude;pressure_sealevel;temperature;humidity
20394;BME280;10356;50.544;9.642;2024-03-08T00:01:13;98559.78;;;0.25;88.56
20394;BME280;10356;50.544;9.642;2024-03-08T00:03:41;98559.00;;;0.23;88.74
20394;BME280;10356;50.544;9.642;2024-03-08T00:06:08;98559.97;;;0.19;88.49
20394;BME280;10356;50.544;9.642;2024-03-08T00:08:36;98558.31;;;0.18;89.03
20394;BME280;10356;50.544;9.642;2024-03-08T00:11:02;98553.22;;;0.17;88.97
20394;BME280;10356;50.544;9.642;2024-03-08T00:13:29;98558.56;;;0.09;88.97
20394;BME280;10356;50.544;9.642;2024-03-08T00:15:56;98543.22;;;0.09;89.24
20394;BME280;10356;50.544;9.642;2024-03-08T00:18:22;98545.97;;;0.03;89.09
20394;BME280;10356;50.544;9.642;2024-03-08T00:20:49;98540.97;;;-0.02;89.53
20394;BME280;10356;50.544;9.642;2024-03-08T00:23:16;98545.41;;;-0.07;89.47
20394;BME280;10356;50.544;9.642;2024-03-08T00:25:44;98538.84;;;-0.15;89.90
20394;BME280;10356;50.544;9.642;2024-03-08T00:28:10;98543.25;;;-0.20;90.05
20394;BME280;10356;50.544;9.642;2024-03-08T00:30:40;98542.44;;;-0.21;90.41
20394;BME280;10356;50.544;9.642;2024-03-08T00:33:08;98538.31;;;-0.26;90.29
20394;BME280;10356;50.544;9.642;2024-03-08T00:35:34;98531.59;;;-0.30;90.65
20394;BME280;10356;50.544;9.642;2024-03-08T00:38:00;98536.81;;;-0.33;91.20
20394;BME280;10356;50.544;9.642;2024-03-08T00:40:27;98528.34;;;-0.35;91.19
20394;BME280;10356;50.544;9.642;2024-03-08T00:42:56;98531.03;;;-0.40;91.15
20394;BME280;10356;50.544;9.642;2024-03-08T00:45:22;98529.41;;;-0.42;91.70
20394;BME280;10356;50.544;9.642;2024-03-08T00:47:49;98532.94;;;-0.46;91.88
20394;BME280;10356;50.544;9.642;2024-03-08T00:50:15;98525.25;;;-0.46;92.21
20394;BME280;10356;50.544;9.642;2024-03-08T00:52:43;98524.44;;;-0.47;92.23
20394;BME280;10356;50.544;9.642;2024-03-08T00:55:09;98518.53;;;-0.49;92.40
20394;BME280;10356;50.544;9.642;2024-03-08T00:57:36;98522.88;;;-0.52;93.05
20394;BME280;10356;50.544;9.642;2024-03-08T01:00:06;98519.63;;;-0.57;93.32
20394;BME280;10356;50.544;9.642;2024-03-08T01:02:37;98518.03;;;-0.61;93.69
20394;BME280;10356;50.544;9.642;2024-03-08T01:05:04;98514.50;;;-0.57;93.97
20394;BME280;10356;50.544;9.642;2024-03-08T01:07:32;98510.38;;;-0.61;93.93
20394;BME280;10356;50.544;9.642;2024-03-08T01:09:58;98507.81;;;-0.61;94.33
20394;BME280;10356;50.544;9.642;2024-03-08T01:12:25;98506.91;;;-0.60;94.75
20394;BME280;10356;50.544;9.642;2024-03-08T01:14:52;98497.56;;;-0.61;94.49
20394;BME280;10356;50.544;9.642;2024-03-08T01:17:20;98498.53;;;-0.65;94.79
20394;BME280;10356;50.544;9.642;2024-03-08T01:19:47;98496.03;;;-0.67;95.06
20394;BME280;10356;50.544;9.642;2024-03-08T01:22:13;98491.03;;;-0.71;95.20
20394;BME280;10356;50.544;9.642;2024-03-08T01:24:39;98490.25;;;-0.73;95.13
20394;BME280;10356;50.544;9.642;2024-03-08T01:27:06;98487.69;;;-0.73;95.09
20394;BME280;10356;50.544;9.642;2024-03-08T01:29:34;98486.00;;;-0.74;95.37
20394;BME280;10356;50.544;9.642;2024-03-08T01:32:01;98486.09;;;-0.77;95.50
20394;BME280;10356;50.544;9.642;2024-03-08T01:34:29;98482.66;;;-0.76;95.32
20394;BME280;10356;50.544;9.642;2024-03-08T01:36:55;98475.94;;;-0.80;95.26
20394;BME280;10356;50.544;9.642;2024-03-08T01:39:22;98470.09;;;-0.84;95.58
20394;BME280;10356;50.544;9.642;2024-03-08T01:41:49;98469.28;;;-0.86;95.56
20394;BME280;10356;50.544;9.642;2024-03-08T01:44:15;98466.00;;;-0.90;95.21
20394;BME280;10356;50.544;9.642;2024-03-08T01:46:43;98462.72;;;-0.95;95.26
20394;BME280;10356;50.544;9.642;2024-03-08T01:49:11;98461.09;;;-0.97;95.32
20394;BME280;10356;50.544;9.642;2024-03-08T01:51:40;98462.88;;;-1.01;95.67
20394;BME280;10356;50.544;9.642;2024-03-08T01:54:08;98452.78;;;-1.04;95.87
20394;BME280;10356;50.544;9.642;2024-03-08T01:56:36;98457.16;;;-1.09;96.20
20394;BME280;10356;50.544;9.642;2024-03-08T01:59:04;98456.34;;;-1.11;96.35
20394;BME280;10356;50.544;9.642;2024-03-08T02:01:33;98454.69;;;-1.12;96.95
20394;BME280;10356;50.544;9.642;2024-03-08T02:04:02;98445.56;;;-1.20;97.07
20394;BME280;10356;50.544;9.642;2024-03-08T02:06:28;98444.72;;;-1.21;97.31
20394;BME280;10356;50.544;9.642;2024-03-08T02:08:56;98437.94;;;-1.22;97.31
20394;BME280;10356;50.544;9.642;2024-03-08T02:11:23;98436.97;;;-1.18;97.85
20394;BME280;10356;50.544;9.642;2024-03-08T02:13:49;98436.09;;;-1.17;97.11
20394;BME280;10356;50.544;9.642;2024-03-08T02:16:20;98432.84;;;-1.22;97.73
20394;BME280;10356;50.544;9.642;2024-03-08T02:18:47;98425.22;;;-1.23;98.20
20394;BME280;10356;50.544;9.642;2024-03-08T02:21:16;98428.41;;;-1.15;98.85
20394;BME280;10356;50.544;9.642;2024-03-08T02:23:43;98432.56;;;-1.13;98.78
20394;BME280;10356;50.544;9.642;2024-03-08T02:26:10;98429.22;;;-1.15;98.46
20394;BME280;10356;50.544;9.642;2024-03-08T02:28:37;98425.16;;;-1.22;98.56
20394;BME280;10356;50.544;9.642;2024-03-08T02:31:04;98422.59;;;-1.22;98.68
20394;BME280;10356;50.544;9.642;2024-03-08T02:33:33;98427.88;;;-1.28;98.62
20394;BME280;10356;50.544;9.642;2024-03-08T02:36:00;98417.84;;;-1.34;99.29
20394;BME280;10356;50.544;9.642;2024-03-08T02:38:28;98415.28;;;-1.34;99.34
20394;BME280;10356;50.544;9.642;2024-03-08T02:40:54;98418.69;;;-1.35;99.52
20394;BME280;10356;50.544;9.642;2024-03-08T02:43:21;98416.25;;;-1.39;99.27
20394;BME280;10356;50.544;9.642;2024-03-08T02:45:49;98410.34;;;-1.40;99.78
20394;BME280;10356;50.544;9.642;2024-03-08T02:48:18;98405.84;;;-1.32;99.09
20394;BME280;10356;50.544;9.642;2024-03-08T02:50:46;98406.09;;;-1.41;98.92
20394;BME280;10356;50.544;9.642;2024-03-08T02:53:13;98403.66;;;-1.45;99.21
20394;BME280;10356;50.544;9.642;2024-03-08T02:55:41;98396.94;;;-1.48;99.83
20394;BME280;10356;50.544;9.642;2024-03-08T02:58:08;98395.34;;;-1.52;99.47
20394;BME280;10356;50.544;9.642;2024-03-08T03:00:35;98404.84;;;-1.57;99.76
20394;BME280;10356;50.544;9.642;2024-03-08T03:03:02;98403.25;;;-1.61;99.86
20394;BME280;10356;50.544;9.642;2024-03-08T03:05:29;98403.16;;;-1.58;100.00
20394;BME280;10356;50.544;9.642;2024-03-08T03:07:56;98408.44;;;-1.64;100.00
20394;BME280;10356;50.544;9.642;2024-03-08T03:10:23;98409.31;;;-1.65;100.00
20394;BME280;10356;50.544;9.642;2024-03-08T03:12:52;98396.63;;;-1.68;99.93
20394;BME280;10356;50.544;9.642;2024-03-08T03:15:19;98400.97;;;-1.72;100.00
20394;BME280;10356;50.544;9.642;2024-03-08T03:17:46;98400.16;;;-1.74;100.00
20394;BME280;10356;50.544;9.642;2024-03-08T03:20:13;98395.09;;;-1.75;100.00
20394;BME280;10356;50.544;9.642;2024-03-08T03:22:47;98392.59;;;-1.77;100.00
20394;BME280;10356;50.544;9.642;2024-03-08T03:25:17;98393.50;;;-1.79;100.00
20394;BME280;10356;50.544;9.642;2024-03-08T03:27:48;98386.75;;;-1.80;100.00
20394;BME280;10356;50.544;9.642;2024-03-08T03:30:16;98388.50;;;-1.82;100.00
20394;BME280;10356;50.544;9.642;2024-03-08T03:32:47;98384.38;;;-1.88;100.00
20394;BME280;10356;50.544;9.642;2024-03-08T03:35:14;98384.31;;;-1.85;100.00
20394;BME280;10356;50.544;9.642;2024-03-08T03:37:41;98385.25;;;-1.89;100.00
20394;BME280;10356;50.544;9.642;2024-03-08T03:40:11;98385.31;;;-1.90;100.00
20394;BME280;10356;50.544;9.642;2024-03-08T03:42:38;98380.25;;;-1.93;100.00
20394;BME280;10356;50.544;9.642;2024-03-08T03:45:05;98379.47;;;-1.95;100.00
20394;BME280;10356;50.544;9.642;2024-03-08T03:47:33;98383.03;;;-2.01;100.00
20394;BME280;10356;50.544;9.642;2024-03-08T03:50:00;98379.56;;;-1.98;100.00
20394;BME280;10356;50.544;9.642;2024-03-08T03:52:28;98376.28;;;-2.03;100.00
20394;BME280;10356;50.544;9.642;2024-03-08T03:54:54;98379.72;;;-2.04;100.00
20394;BME280;10356;50.544;9.642;2024-03-08T03:57:22;98372.91;;;-2.05;100.00
20394;BME280;10356;50.544;9.642;2024-03-08T03:59:48;98371.25;;;-2.06;100.00
20394;BME280;10356;50.544;9.642;2024-03-08T04:02:16;98365.09;;;-1.99;100.00
20394;BME280;10356;50.544;9.642;2024-03-08T04:04:44;98360.25;;;-2.08;100.00
20394;BME280;10356;50.544;9.642;2024-03-08T04:07:11;98368.09;;;-2.16;100.00
20394;BME280;10356;50.544;9.642;2024-03-08T04:09:37;98360.47;;;-2.17;100.00
20394;BME280;10356;50.544;9.642;2024-03-08T04:12:04;98366.47;;;-2.20;100.00
20394;BME280;10356;50.544;9.642;2024-03-08T04:14:31;98362.31;;;-2.22;100.00
20394;BME280;10356;50.544;9.642;2024-03-08T04:16:58;98360.78;;;-2.29;100.00
20394;BME280;10356;50.544;9.642;2024-03-08T04:19:24;98354.84;;;-2.30;100.00
20394;BME280;10356;50.544;9.642;2024-03-08T04:21:53;98354.88;;;-2.31;100.00
20394;BME280;10356;50.544;9.642;2024-03-08T04:24:19;98351.63;;;-2.36;100.00
20394;BME280;10356;50.544;9.642;2024-03-08T04:26:46;98348.22;;;-2.37;100.00
20394;BME280;10356;50.544;9.642;2024-03-08T04:29:12;98351.56;;;-2.35;100.00
20394;BME280;10356;50.544;9.642;2024-03-08T04:31:39;98345.66;;;-2.37;100.00
20394;BME280;10356;50.544;9.642;2024-03-08T04:34:06;98341.25;;;-2.30;100.00
20394;BME280;10356;50.544;9.642;2024-03-08T04:36:33;98337.88;;;-2.31;100.00
20394;BME280;10356;50.544;9.642;2024-03-08T04:39:01;98334.56;;;-2.36;100.00
20394;BME280;10356;50.544;9.642;2024-03-08T04:41:28;98337.16;;;-2.37;100.00
20394;BME280;10356;50.544;9.642;2024-03-08T04:43:55;98335.50;;;-2.38;100.00
20394;BME280;10356;50.544;9.642;2024-03-08T04:46:23;98332.16;;;-2.42;100.00
20394;BME280;10356;50.544;9.642;2024-03-08T04:48:49;98335.53;;;-2.40;100.00
20394;BME280;10356;50.544;9.642;2024-03-08T04:51:16;98338.88;;;-2.36;100.00
20394;BME280;10356;50.544;9.642;2024-03-08T04:53:44;98330.56;;;-2.44;100.00
20394;BME280;10356;50.544;9.642;2024-03-08T04:56:12;98333.13;;;-2.46;100.00
20394;BME280;10356;50.544;9.642;2024-03-08T04:58:39;98328.88;;;-2.45;100.00
20394;BME280;10356;50.544;9.642;2024-03-08T05:01:05;98334.88;;;-2.48;100.00
20394;BME280;10356;50.544;9.642;2024-03-08T05:03:35;98328.13;;;-2.49;100.00
20394;BME280;10356;50.544;9.642;2024-03-08T05:06:03;98331.47;;;-2.47;100.00
20394;BME280;10356;50.544;9.642;2024-03-08T05:08:29;98322.25;;;-2.52;100.00
20394;BME280;10356;50.544;9.642;2024-03-08T05:10:56;98322.38;;;-2.59;100.00
20394;BME280;10356;50.544;9.642;2024-03-08T05:13:24;98330.00;;;-2.57;100.00
20394;BME280;10356;50.544;9.642;2024-03-08T05:15:52;98319.03;;;-2.61;100.00
20394;BME280;10356;50.544;9.642;2024-03-08T05:18:19;98324.22;;;-2.64;100.00
20394;BME280;10356;50.544;9.642;2024-03-08T05:20:47;98321.66;;;-2.64;100.00
20394;BME280;10356;50.544;9.642;2024-03-08T05:23:13;98320.88;;;-2.66;100.00
20394;BME280;10356;50.544;9.642;2024-03-08T05:25:40;98314.06;;;-2.67;100.00
20394;BME280;10356;50.544;9.642;2024-03-08T05:28:07;98315.63;;;-2.60;100.00
20394;BME280;10356;50.544;9.642;2024-03-08T05:30:35;98322.25;;;-2.52;100.00
20394;BME280;10356;50.544;9.642;2024-03-08T05:33:02;98315.41;;;-2.50;100.00
20394;BME280;10356;50.544;9.642;2024-03-08T05:35:29;98321.47;;;-2.54;100.00
20394;BME280;10356;50.544;9.642;2024-03-08T05:37:55;98319.81;;;-2.59;100.00
20394;BME280;10356;50.544;9.642;2024-03-08T05:40:23;98320.66;;;-2.57;100.00
20394;BME280;10356;50.544;9.642;2024-03-08T05:42:49;98324.91;;;-2.57;100.00
20394;BME280;10356;50.544;9.642;2024-03-08T05:45:16;98320.56;;;-2.53;100.00
20394;BME280;10356;50.544;9.642;2024-03-08T05:47:43;98322.25;;;-2.52;100.00
20394;BME280;10356;50.544;9.642;2024-03-08T05:50:11;98308.66;;;-2.53;100.00
20394;BME280;10356;50.544;9.642;2024-03-08T05:52:37;98314.72;;;-2.57;100.00
20394;BME280;10356;50.544;9.642;2024-03-08T05:55:04;98310.41;;;-2.55;100.00
20394;BME280;10356;50.544;9.642;2024-03-08T05:57:32;98311.31;;;-2.58;100.00
20394;BME280;10356;50.544;9.642;2024-03-08T05:59:59;98312.19;;;-2.59;100.00
20394;BME280;10356;50.544;9.642;2024-03-08T06:02:25;98318.06;;;-2.55;100.00
20394;BME280;10356;50.544;9.642;2024-03-08T06:04:53;98322.38;;;-2.59;100.00
20394;BME280;10356;50.544;9.642;2024-03-08T06:07:19;98320.66;;;-2.57;100.00
20394;BME280;10356;50.544;9.642;2024-03-08T06:09:46;98312.97;;;-2.55;100.00
20394;BME280;10356;50.544;9.642;2024-03-08T06:12:13;98321.38;;;-2.51;100.00
20394;BME280;10356;50.544;9.642;2024-03-08T06:14:44;98319.66;;;-2.51;100.00
20394;BME280;10356;50.544;9.642;2024-03-08T06:17:10;98320.22;;;-2.38;100.00
20394;BME280;10356;50.544;9.642;2024-03-08T06:19:37;98316.75;;;-2.37;100.00
20394;BME280;10356;50.544;9.642;2024-03-08T06:22:04;98326.16;;;-2.39;100.00
20394;BME280;10356;50.544;9.642;2024-03-08T06:24:31;98324.34;;;-2.34;100.00
20394;BME280;10356;50.544;9.642;2024-03-08T06:26:59;98321.72;;;-2.31;100.00
20394;BME280;10356;50.544;9.642;2024-03-08T06:29:25;98321.59;;;-2.27;100.00
20394;BME280;10356;50.544;9.642;2024-03-08T06:31:51;98325.00;;;-2.26;100.00
20394;BME280;10356;50.544;9.642;2024-03-08T06:34:18;98320.59;;;-2.21;100.00
20394;BME280;10356;50.544;9.642;2024-03-08T06:36:45;98323.75;;;-2.12;100.00
20394;BME280;10356;50.544;9.642;2024-03-08T06:39:13;98320.06;;;-2.02;100.00
20394;BME280;10356;50.544;9.642;2024-03-08T06:41:39;98321.56;;;-1.93;100.00
20394;BME280;10356;50.544;9.642;2024-03-08T06:44:06;98316.22;;;-1.86;100.00
20394;BME280;10356;50.544;9.642;2024-03-08T06:46:33;98317.75;;;-1.79;100.00
20394;BME280;10356;50.544;9.642;2024-03-08T06:48:59;98308.22;;;-1.72;100.00
20394;BME280;10356;50.544;9.642;2024-03-08T06:51:26;98307.94;;;-1.63;100.00
20394;BME280;10356;50.544;9.642;2024-03-08T06:53:53;98305.16;;;-1.55;100.00
20394;BME280;10356;50.544;9.642;2024-03-08T06:56:20;98309.97;;;-1.45;100.00
20394;BME280;10356;50.544;9.642;2024-03-08T06:58:47;98319.16;;;-1.38;100.00
20394;BME280;10356;50.544;9.642;2024-03-08T07:01:14;98302.75;;;-1.31;100.00
20394;BME280;10356;50.544;9.642;2024-03-08T07:03:41;98304.13;;;-1.19;100.00
20394;BME280;10356;50.544;9.642;2024-03-08T07:06:09;98297.00;;;-1.10;100.00
20394;BME280;10356;50.544;9.642;2024-03-08T07:08:36;98296.81;;;-1.04;100.00
20394;BME280;10356;50.544;9.642;2024-03-08T07:11:02;98295.53;;;-0.91;100.00
20394;BME280;10356;50.544;9.642;2024-03-08T07:13:30;98292.00;;;-0.87;100.00
20394;BME280;10356;50.544;9.642;2024-03-08T07:15:57;98287.34;;;-0.74;100.00
20394;BME280;10356;50.544;9.642;2024-03-08T07:18:25;98290.34;;;-0.61;100.00
20394;BME280;10356;50.544;9.642;2024-03-08T07:20:55;98290.03;;;-0.52;100.00
20394;BME280;10356;50.544;9.642;2024-03-08T07:23:21;98284.31;;;-0.34;100.00
20394;BME280;10356;50.544;9.642;2024-03-08T07:26:02;98283.59;;;-0.13;99.76
20394;BME280;10356;50.544;9.642;2024-03-08T07:28:28;98286.38;;;0.06;98.93
20394;BME280;10356;50.544;9.642;2024-03-08T07:30:57;98283.00;;;0.28;98.45
20394;BME280;10356;50.544;9.642;2024-03-08T07:33:37;98284.53;;;0.55;97.17
20394;BME280;10356;50.544;9.642;2024-03-08T07:36:04;98277.59;;;0.80;96.50
20394;BME280;10356;50.544;9.642;2024-03-08T07:38:31;98282.25;;;0.93;94.57
20394;BME280;10356;50.544;9.642;2024-03-08T07:40:57;98276.28;;;1.14;94.00
20394;BME280;10356;50.544;9.642;2024-03-08T07:43:24;98271.97;;;1.36;92.86
20394;BME280;10356;50.544;9.642;2024-03-08T07:45:50;98263.06;;;1.64;92.51
20394;BME280;10356;50.544;9.642;2024-03-08T07:48:19;98259.13;;;1.96;91.72
20394;BME280;10356;50.544;9.642;2024-03-08T07:50:46;98266.69;;;2.19;90.33
20394;BME280;10356;50.544;9.642;2024-03-08T07:53:15;98256.72;;;2.50;88.98
20394;BME280;10356;50.544;9.642;2024-03-08T07:55:41;98259.56;;;2.82;86.54
20394;BME280;10356;50.544;9.642;2024-03-08T07:58:10;98251.63;;;3.05;85.17
20394;BME280;10356;50.544;9.642;2024-03-08T08:00:37;98249.44;;;3.31;82.33
20394;BME280;10356;50.544;9.642;2024-03-08T08:03:03;98252.63;;;3.54;80.49
20394;BME280;10356;50.544;9.642;2024-03-08T08:05:32;98250.75;;;3.74;77.10
20394;BME280;10356;50.544;9.642;2024-03-08T08:08:00;98239.44;;;3.94;76.72
20394;BME280;10356;50.544;9.642;2024-03-08T08:10:28;98244.91;;;4.20;75.71
20394;BME280;10356;50.544;9.642;2024-03-08T08:12:54;98244.59;;;4.26;72.46
20394;BME280;10356;50.544;9.642;2024-03-08T08:15:22;98230.91;;;4.42;71.41
20394;BME280;10356;50.544;9.642;2024-03-08T08:17:48;98235.16;;;4.58;70.80
20394;BME280;10356;50.544;9.642;2024-03-08T08:20:15;98223.66;;;4.64;69.83
20394;BME280;10356;50.544;9.642;2024-03-08T08:22:44;98224.91;;;4.88;70.21
20394;BME280;10356;50.544;9.642;2024-03-08T08:25:13;98215.75;;;4.98;69.90
20394;BME280;10356;50.544;9.642;2024-03-08T08:27:40;98216.25;;;5.04;68.70
20394;BME280;10356;50.544;9.642;2024-03-08T08:30:08;98202.16;;;5.10;68.34
20394;BME280;10356;50.544;9.642;2024-03-08T08:32:36;98198.22;;;5.03;67.65
20394;BME280;10356;50.544;9.642;2024-03-08T08:35:05;98183.97;;;5.11;69.47
20394;BME280;10356;50.544;9.642;2024-03-08T08:37:33;98170.91;;;5.15;66.98
20394;BME280;10356;50.544;9.642;2024-03-08T08:40:03;98172.69;;;5.28;66.04
20394;BME280;10356;50.544;9.642;2024-03-08T08:42:34;98179.59;;;5.28;66.25
20394;BME280;10356;50.544;9.642;2024-03-08T08:45:00;98179.38;;;5.46;66.93
20394;BME280;10356;50.544;9.642;2024-03-08T08:47:29;98176.00;;;5.60;66.12
20394;BME280;10356;50.544;9.642;2024-03-08T08:49:56;98167.25;;;5.76;64.99
20394;BME280;10356;50.544;9.642;2024-03-08T08:52:22;98164.75;;;5.75;65.02
20394;BME280;10356;50.544;9.642;2024-03-08T08:54:49;98171.50;;;5.63;64.09
20394;BME280;10356;50.544;9.642;2024-03-08T08:57:17;98174.63;;;5.68;63.55
20394;BME280;10356;50.544;9.642;2024-03-08T08:59:44;98168.75;;;5.94;63.35
20394;BME280;10356;50.544;9.642;2024-03-08T09:02:11;98163.41;;;6.12;62.67
20394;BME280;10356;50.544;9.642;2024-03-08T09:04:38;98156.09;;;6.46;63.07
20394;BME280;10356;50.544;9.642;2024-03-08T09:07:04;98156.84;;;6.61;61.91
20394;BME280;10356;50.544;9.642;2024-03-08T09:09:31;98159.09;;;6.53;60.75
20394;BME280;10356;50.544;9.642;2024-03-08T09:11:58;98144.69;;;6.75;60.90
20394;BME280;10356;50.544;9.642;2024-03-08T09:14:26;98154.22;;;6.75;61.05
20394;BME280;10356;50.544;9.642;2024-03-08T09:16:52;98145.94;;;6.70;62.11
20394;BME280;10356;50.544;9.642;2024-03-08T09:19:19;98136.94;;;6.75;60.02
20394;BME280;10356;50.544;9.642;2024-03-08T09:21:45;98133.78;;;6.97;59.83
20394;BME280;10356;50.544;9.642;2024-03-08T09:24:12;98123.69;;;7.19;59.48
20394;BME280;10356;50.544;9.642;2024-03-08T09:26:39;98129.41;;;7.24;59.10
20394;BME280;10356;50.544;9.642;2024-03-08T09:29:08;98121.50;;;7.13;59.75
20394;BME280;10356;50.544;9.642;2024-03-08T09:31:37;98121.84;;;6.82;58.18
20394;BME280;10356;50.544;9.642;2024-03-08T09:34:04;98122.47;;;6.59;59.13
20394;BME280;10356;50.544;9.642;2024-03-08T09:36:33;98126.88;;;6.44;60.54
20394;BME280;10356;50.544;9.642;2024-03-08T09:39:00;98113.69;;;6.88;58.55
20394;BME280;10356;50.544;9.642;2024-03-08T09:41:27;98114.41;;;6.90;57.49
20394;BME280;10356;50.544;9.642;2024-03-08T09:43:55;98112.34;;;6.95;58.63
20394;BME280;10356;50.544;9.642;2024-03-08T09:46:24;98119.16;;;7.23;57.77
20394;BME280;10356;50.544;9.642;2024-03-08T09:48:53;98105.75;;;7.16;57.05
20394;BME280;10356;50.544;9.642;2024-03-08T09:51:21;98104.63;;;7.45;57.46
20394;BME280;10356;50.544;9.642;2024-03-08T09:53:53;98102.34;;;7.28;57.57
20394;BME280;10356;50.544;9.642;2024-03-08T09:56:20;98111.59;;;7.32;56.86
20394;BME280;10356;50.544;9.642;2024-03-08T09:58:48;98101.31;;;7.18;58.10
20394;BME280;10356;50.544;9.642;2024-03-08T10:01:40;98092.19;;;7.25;56.75
20394;BME280;10356;50.544;9.642;2024-03-08T10:04:08;98088.78;;;7.75;57.02
20394;BME280;10356;50.544;9.642;2024-03-08T10:06:35;98087.78;;;8.14;56.25
20394;BME280;10356;50.544;9.642;2024-03-08T10:09:02;98088.13;;;7.84;54.80
20394;BME280;10356;50.544;9.642;2024-03-08T10:11:31;98086.50;;;7.71;54.90
20394;BME280;10356;50.544;9.642;2024-03-08T10:13:59;98081.00;;;7.62;56.35
20394;BME280;10356;50.544;9.642;2024-03-08T10:16:27;98071.53;;;7.87;55.33
20394;BME280;10356;50.544;9.642;2024-03-08T10:18:56;98071.44;;;7.88;54.29
20394;BME280;10356;50.544;9.642;2024-03-08T10:21:24;98070.66;;;8.11;54.57
20394;BME280;10356;50.544;9.642;2024-03-08T10:23:50;98056.53;;;8.52;53.83
20394;BME280;10356;50.544;9.642;2024-03-08T10:26:17;98063.06;;;8.57;53.29
20394;BME280;10356;50.544;9.642;2024-03-08T10:28:47;98051.91;;;8.44;53.09
20394;BME280;10356;50.544;9.642;2024-03-08T10:31:14;98048.69;;;8.40;53.64
20394;BME280;10356;50.544;9.642;2024-03-08T10:33:41;98044.81;;;8.70;54.00
20394;BME280;10356;50.544;9.642;2024-03-08T10:36:08;98040.13;;;8.51;53.99
20394;BME280;10356;50.544;9.642;2024-03-08T10:38:38;98039.81;;;8.32;54.06
20394;BME280;10356;50.544;9.642;2024-03-08T10:41:05;98024.34;;;8.54;54.58
20394;BME280;10356;50.544;9.642;2024-03-08T10:43:52;98040.28;;;8.84;54.34
20394;BME280;10356;50.544;9.642;2024-03-08T10:46:27;98033.25;;;9.08;53.19
20394;BME280;10356;50.544;9.642;2024-03-08T10:48:58;98028.81;;;9.32;51.81
20394;BME280;10356;50.544;9.642;2024-03-08T10:51:28;98031.66;;;8.95;52.33
20394;BME280;10356;50.544;9.642;2024-03-08T10:53:57;98022.41;;;9.14;50.99
20394;BME280;10356;50.544;9.642;2024-03-08T10:56:24;98022.88;;;9.19;52.71
20394;BME280;10356;50.544;9.642;2024-03-08T10:58:53;98018.84;;;9.04;51.59
20394;BME280;10356;50.544;9.642;2024-03-08T11:01:20;98013.63;;;9.04;52.23
20394;BME280;10356;50.544;9.642;2024-03-08T11:03:48;98012.25;;;9.22;51.66
20394;BME280;10356;50.544;9.642;2024-03-08T11:06:19;98006.34;;;9.43;51.27
20394;BME280;10356;50.544;9.642;2024-03-08T11:08:48;97996.19;;;9.62;50.09
20394;BME280;10356;50.544;9.642;2024-03-08T11:11:27;97995.00;;;9.55;49.99
20394;BME280;10356;50.544;9.642;2024-03-08T11:13:56;97996.09;;;9.63;49.82
20394;BME280;10356;50.544;9.642;2024-03-08T11:16:40;97986.47;;;9.42;49.68
20394;BME280;10356;50.544;9.642;2024-03-08T11:19:25;97981.25;;;9.86;50.04
20394;BME280;10356;50.544;9.642;2024-03-08T11:21:58;97979.63;;;9.85;49.70
20394;BME280;10356;50.544;9.642;2024-03-08T11:24:24;97970.09;;;10.06;49.00
20394;BME280;10356;50.544;9.642;2024-03-08T11:26:57;97964.41;;;10.23;49.50
20394;BME280;10356;50.544;9.642;2024-03-08T11:29:35;97962.72;;;10.33;47.99
20394;BME280;10356;50.544;9.642;2024-03-08T11:32:06;97957.38;;;10.35;48.62
20394;BME280;10356;50.544;9.642;2024-03-08T11:34:33;97955.66;;;10.02;48.83
20394;BME280;10356;50.544;9.642;2024-03-08T11:37:00;97945.72;;;10.18;48.69
20394;BME280;10356;50.544;9.642;2024-03-08T11:39:26;97943.13;;;9.96;49.40
20394;BME280;10356;50.544;9.642;2024-03-08T11:41:54;97940.66;;;10.05;48.16
20394;BME280;10356;50.544;9.642;2024-03-08T11:44:26;97943.84;;;9.98;48.58
20394;BME280;10356;50.544;9.642;2024-03-08T11:46:53;97940.53;;;9.96;49.63
20394;BME280;10356;50.544;9.642;2024-03-08T11:49:20;97942.00;;;9.78;48.80
20394;BME280;10356;50.544;9.642;2024-03-08T11:51:46;97933.53;;;9.65;48.80
20394;BME280;10356;50.544;9.642;2024-03-08T11:54:13;97941.78;;;9.81;48.01
20394;BME280;10356;50.544;9.642;2024-03-08T11:56:40;97937.63;;;9.89;49.52
20394;BME280;10356;50.544;9.642;2024-03-08T11:59:11;97938.69;;;9.76;48.97
20394;BME280;10356;50.544;9.642;2024-03-08T12:01:40;97927.91;;;9.91;48.88
20394;BME280;10356;50.544;9.642;2024-03-08T12:04:06;97930.91;;;9.65;48.67
20394;BME280;10356;50.544;9.642;2024-03-08T12:06:38;97933.69;;;9.95;49.15
20394;BME280;10356;50.544;9.642;2024-03-08T12:09:08;97928.72;;;9.92;49.07
20394;BME280;10356;50.544;9.642;2024-03-08T12:11:35;97923.81;;;10.21;49.45
20394;BME280;10356;50.544;9.642;2024-03-08T12:14:02;97921.72;;;10.46;49.33
20394;BME280;10356;50.544;9.642;2024-03-08T12:16:29;97912.03;;;10.37;47.97
20394;BME280;10356;50.544;9.642;2024-03-08T12:18:57;97912.56;;;10.72;48.17
20394;BME280;10356;50.544;9.642;2024-03-08T12:21:26;97906.31;;;10.84;48.48
20394;BME280;10356;50.544;9.642;2024-03-08T12:24:04;97900.97;;;10.86;47.47
20394;BME280;10356;50.544;9.642;2024-03-08T12:26:34;97899.25;;;10.75;47.17
20394;BME280;10356;50.544;9.642;2024-03-08T12:29:17;97897.66;;;10.84;47.74
20394;BME280;10356;50.544;9.642;2024-03-08T12:31:46;97893.66;;;10.80;47.30
20394;BME280;10356;50.544;9.642;2024-03-08T12:34:14;97894.66;;;10.58;47.42
20394;BME280;10356;50.544;9.642;2024-03-08T12:36:45;97885.94;;;10.99;47.28
20394;BME280;10356;50.544;9.642;2024-03-08T12:39:13;97887.00;;;10.66;47.67
20394;BME280;10356;50.544;9.642;2024-03-08T12:41:41;97879.09;;;10.98;48.14
20394;BME280;10356;50.544;9.642;2024-03-08T12:44:08;97874.97;;;11.05;47.21
20394;BME280;10356;50.544;9.642;2024-03-08T12:46:36;97874.88;;;11.07;47.01
20394;BME280;10356;50.544;9.642;2024-03-08T12:49:06;97865.50;;;10.94;47.25
20394;BME280;10356;50.544;9.642;2024-03-08T12:51:34;97859.75;;;11.01;47.12
20394;BME280;10356;50.544;9.642;2024-03-08T12:54:01;97859.63;;;11.02;47.09
20394;BME280;10356;50.544;9.642;2024-03-08T12:56:31;97855.59;;;10.88;46.09
20394;BME280;10356;50.544;9.642;2024-03-08T12:58:59;97846.38;;;10.84;46.39
20394;BME280;10356;50.544;9.642;2024-03-08T13:01:25;97848.84;;;10.86;46.46
20394;BME280;10356;50.544;9.642;2024-03-08T13:03:53;97848.28;;;10.82;46.85